OCN2B EDDF-LDDU
Flight info
| Callsign | OCN2B |
|---|---|
| Flight time | N/A |
| Altitude | 37000 |
| Route | CINDY2D CINDY Z74 LAMPU DCT NOMBO Y161 MAH DCT VAVOR DCT RADIZ DCT MODRO DCT DARZA DCT DEPET DCT UNIPA DCT SIPAL |
| Aircraft | A320/M-SDE2E3FGIJ1LORWXYZ/HB1 |
Departure
| Time | 2026-05-07 20:29 |
|---|---|
| Airport | Frankfurt Main Airport (EDDF) |
Arrival
| Time | N/A |
|---|---|
| Airport | Dubrovnik Ruđer Bošković Airport (LDDU) |
| Time | Latitude | Longitude | Altitude | Speed | Heading |
|---|---|---|---|---|---|
| 2026-05-07 19:53 | 50.04934 | 8.59254 | 365 ft | 0 kts | 340° |
| 2026-05-07 20:10 | 50.04916 | 8.59263 | 366 ft | 4 kts | 340° |
| 2026-05-07 20:10 | 50.04890 | 8.59275 | 368 ft | 4 kts | 350° |
| 2026-05-07 20:11 | 50.04864 | 8.59278 | 368 ft | 4 kts | 14° |
| 2026-05-07 20:11 | 50.04845 | 8.59261 | 374 ft | 3 kts | 68° |
| 2026-05-07 20:11 | 50.04842 | 8.59251 | 368 ft | 0 kts | 70° |
| 2026-05-07 20:12 | 50.04843 | 8.59251 | 372 ft | 0 kts | 70° |
| 2026-05-07 20:14 | 50.04848 | 8.59274 | 370 ft | 12 kts | 70° |
| 2026-05-07 20:14 | 50.04888 | 8.59447 | 369 ft | 17 kts | 72° |
| 2026-05-07 20:14 | 50.04825 | 8.59509 | 370 ft | 14 kts | 154° |
| 2026-05-07 20:14 | 50.04746 | 8.59587 | 373 ft | 11 kts | 159° |
| 2026-05-07 20:15 | 50.04662 | 8.59615 | 374 ft | 14 kts | 174° |
| 2026-05-07 20:15 | 50.04567 | 8.59622 | 375 ft | 19 kts | 178° |
| 2026-05-07 20:15 | 50.04410 | 8.59632 | 376 ft | 22 kts | 178° |
| 2026-05-07 20:15 | 50.04252 | 8.59639 | 375 ft | 24 kts | 181° |
| 2026-05-07 20:16 | 50.04101 | 8.59578 | 375 ft | 20 kts | 199° |
| 2026-05-07 20:16 | 50.03971 | 8.59472 | 373 ft | 23 kts | 218° |
| 2026-05-07 20:16 | 50.03865 | 8.59263 | 367 ft | 22 kts | 248° |
| 2026-05-07 20:16 | 50.03810 | 8.59032 | 366 ft | 24 kts | 250° |
| 2026-05-07 20:17 | 50.03755 | 8.58795 | 362 ft | 24 kts | 250° |
| 2026-05-07 20:17 | 50.03704 | 8.58586 | 361 ft | 21 kts | 249° |
| 2026-05-07 20:17 | 50.03651 | 8.58364 | 363 ft | 23 kts | 250° |
| 2026-05-07 20:17 | 50.03593 | 8.58119 | 363 ft | 25 kts | 250° |
| 2026-05-07 20:18 | 50.03537 | 8.57890 | 363 ft | 22 kts | 249° |
| 2026-05-07 20:18 | 50.03480 | 8.57646 | 355 ft | 25 kts | 250° |
| 2026-05-07 20:18 | 50.03418 | 8.57385 | 361 ft | 25 kts | 249° |
| 2026-05-07 20:18 | 50.03365 | 8.57163 | 357 ft | 23 kts | 249° |
| 2026-05-07 20:19 | 50.03309 | 8.56929 | 354 ft | 18 kts | 250° |
| 2026-05-07 20:19 | 50.03348 | 8.56766 | 357 ft | 16 kts | 287° |
| 2026-05-07 20:19 | 50.03320 | 8.56588 | 351 ft | 18 kts | 250° |
| 2026-05-07 20:19 | 50.03270 | 8.56380 | 350 ft | 22 kts | 249° |
| 2026-05-07 20:20 | 50.03215 | 8.56146 | 351 ft | 24 kts | 250° |
| 2026-05-07 20:20 | 50.03154 | 8.55890 | 353 ft | 27 kts | 249° |
| 2026-05-07 20:20 | 50.03092 | 8.55632 | 343 ft | 26 kts | 249° |
| 2026-05-07 20:20 | 50.03027 | 8.55360 | 345 ft | 24 kts | 250° |
| 2026-05-07 20:21 | 50.02972 | 8.55133 | 341 ft | 23 kts | 249° |
| 2026-05-07 20:21 | 50.02915 | 8.54895 | 335 ft | 18 kts | 250° |
| 2026-05-07 20:21 | 50.02817 | 8.54816 | 336 ft | 16 kts | 207° |
| 2026-05-07 20:21 | 50.02771 | 8.54678 | 337 ft | 14 kts | 250° |
| 2026-05-07 20:22 | 50.02723 | 8.54480 | 335 ft | 23 kts | 249° |
| 2026-05-07 20:22 | 50.02676 | 8.54254 | 338 ft | 22 kts | 257° |
| 2026-05-07 20:22 | 50.02625 | 8.54024 | 332 ft | 22 kts | 249° |
| 2026-05-07 20:22 | 50.02568 | 8.53782 | 331 ft | 25 kts | 250° |
| 2026-05-07 20:23 | 50.02517 | 8.53572 | 334 ft | 20 kts | 249° |
| 2026-05-07 20:23 | 50.02469 | 8.53374 | 335 ft | 16 kts | 250° |
| 2026-05-07 20:23 | 50.02429 | 8.53206 | 335 ft | 17 kts | 250° |
| 2026-05-07 20:23 | 50.02389 | 8.53035 | 332 ft | 10 kts | 250° |
| 2026-05-07 20:24 | 50.02367 | 8.52943 | 332 ft | 8 kts | 250° |
| 2026-05-07 20:24 | 50.02349 | 8.52868 | 334 ft | 7 kts | 249° |
| 2026-05-07 20:24 | 50.02333 | 8.52804 | 332 ft | 6 kts | 249° |
| 2026-05-07 20:24 | 50.02325 | 8.52770 | 335 ft | 0 kts | 249° |
| 2026-05-07 20:25 | 50.02322 | 8.52756 | 332 ft | 9 kts | 249° |
| 2026-05-07 20:25 | 50.02306 | 8.52694 | 335 ft | 0 kts | 249° |
| 2026-05-07 20:25 | 50.02305 | 8.52686 | 335 ft | 1 kts | 249° |
| 2026-05-07 20:25 | 50.02302 | 8.52676 | 334 ft | 1 kts | 249° |
| 2026-05-07 20:26 | 50.02300 | 8.52668 | 335 ft | 1 kts | 249° |
| 2026-05-07 20:26 | 50.02294 | 8.52642 | 331 ft | 10 kts | 249° |
| 2026-05-07 20:26 | 50.02220 | 8.52597 | 332 ft | 8 kts | 156° |
| 2026-05-07 20:26 | 50.02197 | 8.52605 | 331 ft | 0 kts | 176° |
| 2026-05-07 20:27 | 50.02095 | 8.52606 | 335 ft | 49 kts | 180° |
| 2026-05-07 20:28 | 50.01498 | 8.52613 | 332 ft | 119 kts | 180° |
| 2026-05-07 20:28 | 50.00482 | 8.52623 | 378 ft | 167 kts | 179° |
| 2026-05-07 20:28 | 50.00021 | 8.52631 | 582 ft | 170 kts | 179° |
| 2026-05-07 20:29 | 49.99266 | 8.52653 | 897 ft | 183 kts | 177° |
| 2026-05-07 20:29 | 49.97920 | 8.52772 | 1347 ft | 209 kts | 169° |
| 2026-05-07 20:29 | 49.96491 | 8.53562 | 1901 ft | 228 kts | 147° |
| 2026-05-07 20:29 | 49.95278 | 8.55230 | 2581 ft | 239 kts | 124° |
| 2026-05-07 20:30 | 49.94521 | 8.57476 | 3619 ft | 237 kts | 113° |
| 2026-05-07 20:30 | 49.93848 | 8.59906 | 4252 ft | 255 kts | 112° |
| 2026-05-07 20:30 | 49.93076 | 8.62461 | 5027 ft | 266 kts | 116° |
| 2026-05-07 20:30 | 49.92213 | 8.65035 | 5928 ft | 273 kts | 117° |
| 2026-05-07 20:31 | 49.91294 | 8.67644 | 6847 ft | 279 kts | 118° |
| 2026-05-07 20:31 | 49.90340 | 8.70296 | 7755 ft | 284 kts | 119° |
| 2026-05-07 20:31 | 49.89361 | 8.72990 | 8619 ft | 289 kts | 119° |
| 2026-05-07 20:31 | 49.88364 | 8.75721 | 9459 ft | 294 kts | 119° |
| 2026-05-07 20:32 | 49.87361 | 8.78480 | 10268 ft | 300 kts | 120° |
| 2026-05-07 20:32 | 49.86297 | 8.81414 | 10594 ft | 325 kts | 120° |
| 2026-05-07 20:32 | 49.85164 | 8.84538 | 11163 ft | 337 kts | 120° |
| 2026-05-07 20:32 | 49.84006 | 8.87732 | 11921 ft | 343 kts | 120° |
| 2026-05-07 20:33 | 49.82830 | 8.90972 | 12683 ft | 348 kts | 120° |
| 2026-05-07 20:33 | 49.81640 | 8.94254 | 13435 ft | 352 kts | 120° |
| 2026-05-07 20:33 | 49.80439 | 8.97571 | 14178 ft | 355 kts | 120° |
| 2026-05-07 20:33 | 49.79235 | 9.00886 | 14874 ft | 359 kts | 120° |
| 2026-05-07 20:34 | 49.78004 | 9.04257 | 15580 ft | 362 kts | 120° |
| 2026-05-07 20:34 | 49.76769 | 9.07696 | 16262 ft | 366 kts | 116° |
| 2026-05-07 20:34 | 49.75850 | 9.11373 | 16912 ft | 370 kts | 105° |
| 2026-05-07 20:34 | 49.75192 | 9.15240 | 17553 ft | 373 kts | 108° |
| 2026-05-07 20:35 | 49.74164 | 9.18936 | 18177 ft | 376 kts | 120° |
| 2026-05-07 20:35 | 49.72694 | 9.22290 | 18791 ft | 378 kts | 131° |
| 2026-05-07 20:35 | 49.70964 | 9.25361 | 19387 ft | 381 kts | 132° |
| 2026-05-07 20:35 | 49.69212 | 9.28453 | 19980 ft | 384 kts | 132° |
| 2026-05-07 20:36 | 49.67440 | 9.31572 | 20570 ft | 388 kts | 132° |
| 2026-05-07 20:36 | 49.65655 | 9.34708 | 21104 ft | 391 kts | 132° |
| 2026-05-07 20:36 | 49.63855 | 9.37873 | 21657 ft | 393 kts | 132° |
| 2026-05-07 20:36 | 49.61938 | 9.40901 | 22162 ft | 396 kts | 140° |
| 2026-05-07 20:37 | 49.59712 | 9.43398 | 22655 ft | 397 kts | 150° |
| 2026-05-07 20:37 | 49.57324 | 9.45573 | 23144 ft | 400 kts | 150° |
| 2026-05-07 20:37 | 49.54916 | 9.47763 | 23628 ft | 403 kts | 150° |
| 2026-05-07 20:37 | 49.52494 | 9.49974 | 24100 ft | 406 kts | 150° |
| 2026-05-07 20:38 | 49.50085 | 9.52172 | 24543 ft | 409 kts | 150° |
| 2026-05-07 20:38 | 49.47628 | 9.54415 | 24986 ft | 412 kts | 150° |
| 2026-05-07 20:38 | 49.45156 | 9.56673 | 25415 ft | 415 kts | 150° |
| 2026-05-07 20:38 | 49.42669 | 9.58942 | 25836 ft | 417 kts | 150° |
| 2026-05-07 20:39 | 49.40162 | 9.61219 | 26239 ft | 420 kts | 150° |
| 2026-05-07 20:39 | 49.37639 | 9.63506 | 26632 ft | 422 kts | 150° |
| 2026-05-07 20:39 | 49.35120 | 9.65839 | 27023 ft | 425 kts | 147° |
| 2026-05-07 20:39 | 49.32786 | 9.68664 | 27392 ft | 429 kts | 137° |
| 2026-05-07 20:40 | 49.30665 | 9.71898 | 27760 ft | 431 kts | 135° |
| 2026-05-07 20:40 | 49.28542 | 9.75161 | 28129 ft | 433 kts | 135° |
| 2026-05-07 20:40 | 49.26403 | 9.78438 | 28485 ft | 436 kts | 135° |
| 2026-05-07 20:40 | 49.24249 | 9.81727 | 28834 ft | 439 kts | 135° |
| 2026-05-07 20:41 | 49.22076 | 9.85036 | 29191 ft | 441 kts | 136° |
| 2026-05-07 20:41 | 49.19899 | 9.88340 | 29541 ft | 443 kts | 136° |
| 2026-05-07 20:41 | 49.17701 | 9.91666 | 29869 ft | 445 kts | 136° |
| 2026-05-07 20:41 | 49.15500 | 9.95001 | 30192 ft | 447 kts | 136° |
| 2026-05-07 20:42 | 49.13288 | 9.98354 | 30506 ft | 449 kts | 136° |
| 2026-05-07 20:42 | 49.11063 | 10.01722 | 30811 ft | 451 kts | 136° |
| 2026-05-07 20:42 | 49.08849 | 10.05063 | 31084 ft | 454 kts | 136° |
| 2026-05-07 20:42 | 49.06598 | 10.08444 | 31362 ft | 456 kts | 136° |
| 2026-05-07 20:43 | 49.04310 | 10.11825 | 31637 ft | 458 kts | 138° |
| 2026-05-07 20:43 | 49.01992 | 10.15147 | 31990 ft | 457 kts | 139° |
| 2026-05-07 20:43 | 48.99656 | 10.18424 | 32374 ft | 457 kts | 139° |
| 2026-05-07 20:43 | 48.97310 | 10.21680 | 32714 ft | 456 kts | 140° |
| 2026-05-07 20:44 | 48.94962 | 10.24942 | 33085 ft | 456 kts | 140° |
| 2026-05-07 20:44 | 48.92627 | 10.28202 | 33437 ft | 456 kts | 140° |
| 2026-05-07 20:44 | 48.90294 | 10.31480 | 33784 ft | 456 kts | 140° |
| 2026-05-07 20:44 | 48.87970 | 10.34758 | 34121 ft | 456 kts | 140° |
| 2026-05-07 20:45 | 48.85681 | 10.37992 | 34447 ft | 455 kts | 140° |
| 2026-05-07 20:45 | 48.83357 | 10.41270 | 34768 ft | 455 kts | 140° |
| 2026-05-07 20:45 | 48.81076 | 10.44605 | 35032 ft | 457 kts | 138° |
| 2026-05-07 20:46 | 48.76731 | 10.51525 | 35101 ft | 448 kts | 135° |
| 2026-05-07 20:46 | 48.72536 | 10.58478 | 35099 ft | 446 kts | 135° |
| 2026-05-07 20:47 | 48.68308 | 10.65333 | 35100 ft | 445 kts | 136° |
| 2026-05-07 20:47 | 48.64029 | 10.72108 | 35101 ft | 445 kts | 137° |
| 2026-05-07 20:48 | 48.59735 | 10.78870 | 35101 ft | 445 kts | 137° |
| 2026-05-07 20:48 | 48.55464 | 10.85641 | 35104 ft | 446 kts | 136° |
| 2026-05-07 20:49 | 48.51216 | 10.92453 | 35105 ft | 446 kts | 136° |
| 2026-05-07 20:49 | 48.46955 | 10.99250 | 35106 ft | 445 kts | 137° |
| 2026-05-07 20:50 | 48.42673 | 11.05929 | 35108 ft | 445 kts | 137° |
| 2026-05-07 20:50 | 48.38354 | 11.12602 | 35107 ft | 445 kts | 137° |
| 2026-05-07 20:51 | 48.34036 | 11.19289 | 35105 ft | 445 kts | 137° |
| 2026-05-07 20:51 | 48.30448 | 11.24831 | 35104 ft | 445 kts | 137° |
| 2026-05-07 20:52 | 48.26258 | 11.31715 | 35101 ft | 449 kts | 128° |
| 2026-05-07 20:52 | 48.23044 | 11.39781 | 35088 ft | 451 kts | 123° |
| 2026-05-07 20:53 | 48.19906 | 11.47930 | 35083 ft | 451 kts | 123° |
| 2026-05-07 20:53 | 48.16741 | 11.56055 | 35080 ft | 451 kts | 123° |
| 2026-05-07 20:54 | 48.13571 | 11.64179 | 35074 ft | 452 kts | 123° |
| 2026-05-07 20:54 | 48.10422 | 11.72252 | 35081 ft | 452 kts | 123° |
| 2026-05-07 20:55 | 48.07243 | 11.80375 | 35077 ft | 452 kts | 123° |
| 2026-05-07 20:55 | 48.04066 | 11.88486 | 35077 ft | 452 kts | 123° |
| 2026-05-07 20:56 | 48.00883 | 11.96590 | 35080 ft | 452 kts | 124° |
| 2026-05-07 20:56 | 47.97684 | 12.04674 | 35076 ft | 452 kts | 124° |
| 2026-05-07 20:57 | 47.94455 | 12.12714 | 35075 ft | 450 kts | 128° |
| 2026-05-07 20:57 | 47.90244 | 12.19467 | 35092 ft | 441 kts | 144° |
| 2026-05-07 20:58 | 47.85534 | 12.25335 | 35078 ft | 442 kts | 144° |
| 2026-05-07 20:58 | 47.80860 | 12.31196 | 35096 ft | 443 kts | 144° |
| 2026-05-07 20:59 | 47.76148 | 12.37081 | 35096 ft | 442 kts | 144° |
| 2026-05-07 20:59 | 47.71433 | 12.42940 | 35096 ft | 442 kts | 144° |
| 2026-05-07 21:00 | 47.66720 | 12.48788 | 35097 ft | 441 kts | 144° |
| 2026-05-07 21:00 | 47.62008 | 12.54626 | 35100 ft | 441 kts | 145° |
| 2026-05-07 21:01 | 47.57267 | 12.60412 | 35097 ft | 441 kts | 146° |
| 2026-05-07 21:01 | 47.52510 | 12.66142 | 35099 ft | 441 kts | 146° |
| 2026-05-07 21:02 | 47.47753 | 12.71858 | 35099 ft | 441 kts | 146° |
| 2026-05-07 21:02 | 47.42999 | 12.77578 | 35103 ft | 440 kts | 146° |
| 2026-05-07 21:03 | 47.38237 | 12.83298 | 35103 ft | 440 kts | 146° |
| 2026-05-07 21:03 | 47.33485 | 12.88991 | 35102 ft | 440 kts | 146° |
| 2026-05-07 21:04 | 47.28757 | 12.94634 | 35101 ft | 440 kts | 146° |
| 2026-05-07 21:04 | 47.23997 | 13.00306 | 35102 ft | 441 kts | 146° |
| 2026-05-07 21:05 | 47.19234 | 13.05981 | 35100 ft | 440 kts | 146° |
| 2026-05-07 21:05 | 47.14479 | 13.11639 | 35101 ft | 440 kts | 147° |
| 2026-05-07 21:06 | 47.09712 | 13.17276 | 35102 ft | 440 kts | 147° |
| 2026-05-07 21:06 | 47.04938 | 13.22907 | 35097 ft | 440 kts | 147° |
| 2026-05-07 21:07 | 47.00150 | 13.28533 | 35082 ft | 442 kts | 147° |
| 2026-05-07 21:07 | 46.95347 | 13.34169 | 35072 ft | 443 kts | 147° |
| 2026-05-07 21:08 | 46.90532 | 13.39827 | 35070 ft | 444 kts | 147° |
| 2026-05-07 21:08 | 46.85708 | 13.45473 | 35068 ft | 445 kts | 147° |
| 2026-05-07 21:09 | 46.80875 | 13.51119 | 35077 ft | 444 kts | 147° |
| 2026-05-07 21:09 | 46.76034 | 13.56745 | 35079 ft | 444 kts | 147° |
| 2026-05-07 21:10 | 46.71197 | 13.62364 | 35076 ft | 444 kts | 148° |
| 2026-05-07 21:10 | 46.66352 | 13.67974 | 35070 ft | 446 kts | 148° |
| 2026-05-07 21:11 | 46.61531 | 13.73545 | 35068 ft | 446 kts | 148° |
| 2026-05-07 21:11 | 46.54249 | 13.81946 | 35062 ft | 446 kts | 148° |
| 2026-05-07 21:12 | 46.49384 | 13.87532 | 35063 ft | 446 kts | 148° |
| 2026-05-07 21:12 | 46.44515 | 13.93106 | 35064 ft | 446 kts | 148° |
| 2026-05-07 21:13 | 46.39645 | 13.98685 | 35058 ft | 446 kts | 148° |
| 2026-05-07 21:13 | 46.34777 | 14.04253 | 35059 ft | 446 kts | 148° |
| 2026-05-07 21:14 | 46.29901 | 14.09806 | 35064 ft | 446 kts | 149° |
| 2026-05-07 21:14 | 46.25011 | 14.15351 | 35076 ft | 446 kts | 149° |
| 2026-05-07 21:15 | 46.20125 | 14.20873 | 35067 ft | 446 kts | 149° |
| 2026-05-07 21:15 | 46.15237 | 14.26394 | 35074 ft | 447 kts | 149° |
| 2026-05-07 21:16 | 46.10345 | 14.31925 | 35079 ft | 447 kts | 149° |
| 2026-05-07 21:16 | 46.05450 | 14.37436 | 35080 ft | 447 kts | 149° |
| 2026-05-07 21:17 | 46.00578 | 14.42975 | 35080 ft | 446 kts | 148° |
| 2026-05-07 21:17 | 45.95720 | 14.48551 | 35074 ft | 447 kts | 148° |
| 2026-05-07 21:18 | 45.90860 | 14.54115 | 35077 ft | 447 kts | 148° |
| 2026-05-07 21:18 | 45.86020 | 14.59620 | 35075 ft | 447 kts | 149° |
| 2026-05-07 21:19 | 45.81138 | 14.65150 | 35071 ft | 447 kts | 149° |
| 2026-05-07 21:19 | 45.76257 | 14.70664 | 35073 ft | 447 kts | 149° |
| 2026-05-07 21:20 | 45.71375 | 14.76169 | 35079 ft | 447 kts | 149° |
| 2026-05-07 21:20 | 45.66497 | 14.81672 | 35076 ft | 446 kts | 149° |
| 2026-05-07 21:21 | 45.61618 | 14.87157 | 35069 ft | 446 kts | 149° |
| 2026-05-07 21:21 | 45.56737 | 14.92619 | 35076 ft | 446 kts | 149° |
| 2026-05-07 21:22 | 45.51858 | 14.98072 | 35087 ft | 445 kts | 149° |
| 2026-05-07 21:22 | 45.47011 | 15.03561 | 35085 ft | 446 kts | 148° |
| 2026-05-07 21:23 | 45.42257 | 15.09270 | 35086 ft | 446 kts | 147° |
| 2026-05-07 21:23 | 45.37582 | 15.14978 | 35081 ft | 446 kts | 147° |
| 2026-05-07 21:24 | 45.32847 | 15.20679 | 35080 ft | 445 kts | 147° |
| 2026-05-07 21:24 | 45.28109 | 15.26317 | 35072 ft | 444 kts | 148° |
| 2026-05-07 21:25 | 45.23359 | 15.31942 | 35073 ft | 445 kts | 148° |
| 2026-05-07 21:25 | 45.18613 | 15.37572 | 35072 ft | 445 kts | 148° |
| 2026-05-07 21:26 | 45.13860 | 15.43194 | 35069 ft | 445 kts | 148° |
| 2026-05-07 21:26 | 45.09104 | 15.48807 | 35073 ft | 445 kts | 148° |
| 2026-05-07 21:27 | 45.04353 | 15.54414 | 35070 ft | 444 kts | 148° |
| 2026-05-07 21:27 | 44.99591 | 15.60001 | 35066 ft | 445 kts | 148° |
| 2026-05-07 21:28 | 44.94855 | 15.65546 | 35063 ft | 445 kts | 148° |
| 2026-05-07 21:28 | 44.90081 | 15.71140 | 35057 ft | 446 kts | 148° |
| 2026-05-07 21:29 | 44.85304 | 15.76730 | 35057 ft | 446 kts | 148° |
| 2026-05-07 21:29 | 44.80522 | 15.82294 | 35064 ft | 446 kts | 149° |
| 2026-05-07 21:30 | 44.75727 | 15.87865 | 35061 ft | 447 kts | 149° |
| 2026-05-07 21:30 | 44.70928 | 15.93436 | 35065 ft | 447 kts | 149° |
| 2026-05-07 21:31 | 44.65951 | 15.98507 | 35070 ft | 435 kts | 160° |
| 2026-05-07 21:31 | 44.60677 | 16.02686 | 35064 ft | 435 kts | 159° |
| 2026-05-07 21:32 | 44.55402 | 16.06900 | 35061 ft | 436 kts | 159° |
| 2026-05-07 21:32 | 44.50128 | 16.11120 | 35061 ft | 437 kts | 159° |
| 2026-05-07 21:33 | 44.44877 | 16.15293 | 35063 ft | 437 kts | 160° |
| 2026-05-07 21:33 | 44.39586 | 16.19476 | 35063 ft | 436 kts | 160° |
| 2026-05-07 21:34 | 44.34301 | 16.23650 | 35058 ft | 436 kts | 160° |
| 2026-05-07 21:34 | 44.29024 | 16.27816 | 35052 ft | 436 kts | 160° |
| 2026-05-07 21:35 | 44.25500 | 16.30591 | 35051 ft | 436 kts | 160° |